createdAt,value
2022-10-14T00:02:13.898Z,101245.88
2022-10-14T00:04:40.941Z,101249.81
2022-10-14T00:07:07.947Z,101243.06
2022-10-14T00:09:34.996Z,101244.69
2022-10-14T00:12:01.832Z,101238.16
2022-10-14T00:14:28.648Z,101249.44
2022-10-14T00:16:56.452Z,101240.00
2022-10-14T00:22:14.617Z,101239.03
2022-10-14T00:24:41.493Z,101235.75
2022-10-14T00:27:09.192Z,101231.44
2022-10-14T00:29:36.213Z,101224.69
2022-10-14T00:32:03.075Z,101221.63
2022-10-14T00:34:30.719Z,101230.91
2022-10-14T00:37:00.027Z,101231.72
2022-10-14T00:39:27.211Z,101230.91
2022-10-14T00:41:54.086Z,101223.75
2022-10-14T00:44:20.986Z,101225.41
2022-10-14T00:47:13.350Z,101229.75
2022-10-14T00:49:43.648Z,101225.22
2022-10-14T00:52:19.106Z,101231.59
2022-10-14T00:54:55.376Z,101221.34
2022-10-14T00:57:25.224Z,101220.16
2022-10-14T01:00:01.931Z,101220.16
2022-10-14T01:02:29.513Z,101220.00
2022-10-14T01:04:56.609Z,101224.34
2022-10-14T01:08:02.834Z,101219.81
2022-10-14T01:10:49.529Z,101217.59
2022-10-14T01:13:32.971Z,101221.50
2022-10-14T01:16:16.871Z,101212.28
2022-10-14T01:19:41.824Z,101211.47
2022-10-14T01:22:31.205Z,101212.13
2022-10-14T01:25:12.972Z,101217.69
2022-10-14T01:28:01.351Z,101210.91
2022-10-14T01:30:44.847Z,101206.81
2022-10-14T01:33:51.340Z,101215.44
2022-10-14T01:36:38.964Z,101207.88
2022-10-14T01:39:12.664Z,101211.56
2022-10-14T01:41:49.032Z,101210.97
2022-10-14T01:44:18.667Z,101207.09
2022-10-14T01:46:52.241Z,101211.84
2022-10-14T01:49:32.604Z,101209.97
2022-10-14T01:52:09.887Z,101203.81
2022-10-14T01:54:43.111Z,101196.03
2022-10-14T01:57:22.414Z,101206.50
2022-10-14T01:59:52.243Z,101210.63
2022-10-14T02:02:20.096Z,101204.88
2022-10-14T02:04:47.252Z,101204.47
2022-10-14T02:07:27.836Z,101205.50
2022-10-14T02:10:24.527Z,101206.31
2022-10-14T02:13:16.949Z,101199.75
2022-10-14T02:16:38.578Z,101218.22
2022-10-14T02:19:28.290Z,101211.66
2022-10-14T02:22:39.926Z,101201.22
2022-10-14T02:25:36.318Z,101203.28
2022-10-14T02:28:07.869Z,101206.38
2022-10-14T02:30:42.481Z,101203.69
2022-10-14T02:33:10.175Z,101215.41
2022-10-14T02:35:38.671Z,101212.13
2022-10-14T02:38:07.748Z,101218.66
2022-10-14T02:40:43.691Z,101212.13
2022-10-14T02:43:12.307Z,101213.97
2022-10-14T02:45:42.274Z,101209.47
2022-10-14T02:48:10.565Z,101209.69
2022-10-14T02:50:38.346Z,101210.50
2022-10-14T02:53:05.210Z,101212.13
2022-10-14T02:55:32.143Z,101210.88
2022-10-14T02:58:00.093Z,101211.69
2022-10-14T03:00:27.220Z,101201.63
2022-10-14T03:02:56.253Z,101205.50
2022-10-14T03:05:24.941Z,101210.19
2022-10-14T03:07:53.810Z,101206.09
2022-10-14T03:10:22.393Z,101217.56
2022-10-14T03:12:49.649Z,101209.94
2022-10-14T03:15:25.606Z,101215.44
2022-10-14T03:17:53.280Z,101192.22
2022-10-14T03:20:24.729Z,101188.47
2022-10-14T03:22:56.390Z,101181.88
2022-10-14T03:25:24.093Z,101185.31
2022-10-14T03:28:02.363Z,101183.84
2022-10-14T03:30:58.415Z,101184.25
2022-10-14T03:33:40.660Z,101178.63
2022-10-14T03:36:12.130Z,101190.28
2022-10-14T03:38:49.790Z,101174.25
2022-10-14T03:41:39.931Z,101166.41
2022-10-14T03:44:08.192Z,101177.25
2022-10-14T03:46:37.843Z,101174.97
2022-10-14T03:49:05.531Z,101174.13
2022-10-14T03:51:33.051Z,101175.34
2022-10-14T03:54:13.586Z,101170.00
2022-10-14T03:56:40.428Z,101169.63
2022-10-14T03:59:08.302Z,101176.38
2022-10-14T04:01:36.728Z,101175.56
2022-10-14T04:04:15.914Z,101169.16
2022-10-14T04:06:42.773Z,101171.47
2022-10-14T04:09:10.183Z,101168.78
2022-10-14T04:11:40.131Z,101168.56
2022-10-14T04:14:10.649Z,101163.22
2022-10-14T04:16:49.696Z,101156.25
2022-10-14T04:19:18.018Z,101158.72
2022-10-14T04:21:45.527Z,101146.59
2022-10-14T04:24:13.043Z,101144.16
2022-10-14T04:26:52.526Z,101153.19
2022-10-14T04:29:44.254Z,101159.00
2022-10-14T04:32:17.526Z,101156.53
2022-10-14T04:34:44.997Z,101156.53
2022-10-14T04:37:15.325Z,101158.59
2022-10-14T04:39:55.485Z,101155.34
2022-10-14T04:42:23.306Z,101157.19
2022-10-14T04:44:54.700Z,101146.72
2022-10-14T04:47:30.918Z,101153.50
2022-10-14T04:50:02.426Z,101136.66
2022-10-14T04:52:31.793Z,101135.81
2022-10-14T04:55:08.572Z,101133.75
2022-10-14T04:57:43.280Z,101129.00
2022-10-14T05:00:12.665Z,101137.19
2022-10-14T05:02:52.565Z,101138.44
2022-10-14T05:05:22.103Z,101135.91
2022-10-14T05:07:53.619Z,101144.75
2022-10-14T05:10:29.004Z,101140.59
2022-10-14T05:12:56.767Z,101142.22
2022-10-14T05:15:27.361Z,101141.34
2022-10-14T05:18:04.920Z,101141.50
2022-10-14T05:20:47.026Z,101134.69
2022-10-14T05:23:14.282Z,101139.34
2022-10-14T05:25:43.090Z,101134.19
2022-10-14T05:28:10.543Z,101140.72
2022-10-14T05:30:39.270Z,101137.81
2022-10-14T05:33:09.150Z,101135.31
2022-10-14T05:35:57.606Z,101129.72
2022-10-14T05:38:34.176Z,101133.00
2022-10-14T05:41:02.080Z,101131.06
2022-10-14T05:43:32.403Z,101133.88
2022-10-14T05:46:03.354Z,101134.25
2022-10-14T05:48:35.289Z,101126.00
2022-10-14T05:51:03.392Z,101133.94
2022-10-14T05:53:32.721Z,101131.41
2022-10-14T05:56:09.093Z,101128.88
2022-10-14T05:58:38.795Z,101132.75
2022-10-14T06:01:10.772Z,101127.91
2022-10-14T06:03:41.148Z,101132.22
2022-10-14T06:06:14.182Z,101127.97
2022-10-14T06:08:42.061Z,101135.09
2022-10-14T06:11:09.658Z,101131.72
2022-10-14T06:13:36.579Z,101136.41
2022-10-14T06:16:06.453Z,101136.56
2022-10-14T06:18:34.853Z,101142.63
2022-10-14T06:21:27.232Z,101130.28
2022-10-14T06:23:54.539Z,101140.66
2022-10-14T06:26:21.564Z,101127.19
2022-10-14T06:28:48.612Z,101129.16
2022-10-14T06:31:15.621Z,101128.25
2022-10-14T06:33:44.017Z,101134.31
2022-10-14T06:36:12.097Z,101139.56
2022-10-14T06:38:39.286Z,101132.47
2022-10-14T06:41:06.861Z,101137.25
2022-10-14T06:43:35.315Z,101134.91
2022-10-14T06:46:28.051Z,101133.41
2022-10-14T06:48:55.129Z,101138.41
2022-10-14T06:51:22.203Z,101131.09
2022-10-14T06:53:49.117Z,101135.88
2022-10-14T06:56:16.074Z,101133.13
2022-10-14T06:58:43.092Z,101135.19
2022-10-14T07:01:10.104Z,101116.88
2022-10-14T07:03:39.148Z,101118.72
2022-10-14T07:06:07.781Z,101133.41
2022-10-14T07:08:35.010Z,101127.91
2022-10-14T07:11:02.632Z,101132.66
2022-10-14T07:13:29.860Z,101134.16
2022-10-14T07:15:56.725Z,101133.81
2022-10-14T07:18:23.914Z,101133.75
2022-10-14T07:20:50.821Z,101135.00
2022-10-14T07:23:17.705Z,101144.63
2022-10-14T07:25:44.746Z,101134.91
2022-10-14T07:28:11.981Z,101132.41
2022-10-14T07:30:39.147Z,101138.28
2022-10-14T07:33:05.970Z,101147.91
2022-10-14T07:35:33.114Z,101140.84
2022-10-14T07:38:00.209Z,101136.22
2022-10-14T07:40:28.037Z,101137.25
2022-10-14T07:42:54.956Z,101134.47
2022-10-14T07:45:21.932Z,101133.81
2022-10-14T07:47:51.440Z,101139.91
2022-10-14T07:50:20.106Z,101135.22
2022-10-14T07:52:47.148Z,101133.69
2022-10-14T07:55:14.076Z,101145.13
2022-10-14T07:57:41.033Z,101150.00
2022-10-14T08:00:09.368Z,101141.94
2022-10-14T08:02:38.985Z,101136.34
2022-10-14T08:05:36.669Z,101130.34
2022-10-14T08:07:53.634Z,101132.16
2022-10-14T08:10:24.102Z,101136.88
2022-10-14T08:12:51.856Z,101142.44
2022-10-14T08:15:19.101Z,101143.94
2022-10-14T08:17:46.352Z,101144.13
2022-10-14T08:20:13.348Z,101141.25
2022-10-14T08:22:40.343Z,101132.94
2022-10-14T08:25:07.799Z,101133.59
2022-10-14T08:27:36.565Z,101125.06
2022-10-14T08:30:10.209Z,101129.78
2022-10-14T08:32:38.894Z,101122.41
2022-10-14T08:35:06.565Z,101119.56
2022-10-14T08:37:33.357Z,101121.28
2022-10-14T08:40:00.618Z,101113.50
2022-10-14T08:42:37.201Z,101112.28
2022-10-14T08:45:22.422Z,101114.50
2022-10-14T08:47:56.961Z,101107.47
2022-10-14T08:50:39.569Z,101098.63
2022-10-14T08:53:14.117Z,101102.84
2022-10-14T08:55:54.703Z,101092.88
2022-10-14T08:58:35.103Z,101084.91
2022-10-14T09:01:32.801Z,101075.97
2022-10-14T09:04:06.623Z,101071.75
2022-10-14T09:06:41.631Z,101083.31
2022-10-14T09:09:54.362Z,101062.78
2022-10-14T09:12:28.831Z,101060.31
2022-10-14T09:15:16.681Z,101053.78
2022-10-14T09:17:55.760Z,101038.41
2022-10-14T09:20:25.449Z,101041.78
2022-10-14T09:23:10.422Z,101036.31
2022-10-14T09:25:40.275Z,101037.66
2022-10-14T09:28:09.106Z,101029.22
2022-10-14T09:30:38.959Z,101046.28
2022-10-14T09:33:06.728Z,101049.59
2022-10-14T09:35:42.306Z,101045.41
2022-10-14T09:38:12.144Z,101042.66
2022-10-14T09:40:49.939Z,101038.84
2022-10-14T09:44:25.713Z,101030.78
2022-10-14T09:46:58.368Z,101038.00
2022-10-14T09:49:42.632Z,101027.75
2022-10-14T09:52:24.710Z,101017.09
2022-10-14T09:54:57.403Z,101018.31
2022-10-14T09:57:29.932Z,101016.38
2022-10-14T10:00:06.394Z,101016.03
2022-10-14T10:02:44.980Z,101017.16
2022-10-14T10:05:25.916Z,101001.81
2022-10-14T10:08:07.684Z,101011.56
2022-10-14T10:10:35.583Z,101010.06
2022-10-14T10:13:03.910Z,101004.34
2022-10-14T10:15:30.814Z,100998.59
2022-10-14T10:17:57.753Z,100988.13
2022-10-14T10:20:31.809Z,100992.44
2022-10-14T10:23:25.646Z,100984.47
2022-10-14T10:25:53.193Z,100992.19
2022-10-14T10:28:31.483Z,100983.81
2022-10-14T10:31:47.444Z,100978.38
2022-10-14T10:34:54.664Z,100985.31
2022-10-14T10:37:28.587Z,100987.25
2022-10-14T10:40:12.671Z,100993.19
2022-10-14T10:42:58.746Z,100986.28
2022-10-14T10:45:41.650Z,100990.97
2022-10-14T10:48:31.164Z,100988.38
2022-10-14T10:51:09.912Z,100995.72
2022-10-14T10:54:02.780Z,100998.00
2022-10-14T10:56:42.872Z,100988.91
2022-10-14T11:00:07.830Z,100988.03
2022-10-14T11:03:49.197Z,100989.28
2022-10-14T11:10:42.108Z,100983.59
2022-10-14T11:13:41.938Z,100983.72
2022-10-14T11:16:55.530Z,100980.53
2022-10-14T11:19:33.601Z,100986.88
2022-10-14T11:22:43.879Z,100993.72
2022-10-14T11:25:25.502Z,100984.19
2022-10-14T11:28:10.307Z,100979.47
2022-10-14T11:31:06.773Z,100983.38
2022-10-14T11:33:46.085Z,100973.91
2022-10-14T11:36:35.389Z,100975.41
2022-10-14T11:39:39.372Z,100974.47
2022-10-14T11:42:35.127Z,100972.28
2022-10-14T11:45:21.165Z,100972.84
2022-10-14T11:48:10.827Z,100959.19
2022-10-14T11:50:42.401Z,100954.38
2022-10-14T11:53:39.667Z,100952.88
2022-10-14T11:56:46.458Z,100946.19
2022-10-14T11:59:40.030Z,100953.66
2022-10-14T12:02:39.886Z,100945.28
2022-10-14T12:05:41.302Z,100950.53
2022-10-14T12:08:25.841Z,100943.78
2022-10-14T12:11:13.610Z,100936.03
2022-10-14T12:13:52.286Z,100934.03
2022-10-14T12:16:22.504Z,100932.22
2022-10-14T12:18:55.306Z,100938.09
2022-10-14T12:21:52.677Z,100942.75
2022-10-14T12:24:26.556Z,100941.31
2022-10-14T12:26:57.820Z,100932.91
2022-10-14T12:29:41.454Z,100936.13
2022-10-14T12:32:28.093Z,100946.28
2022-10-14T12:35:02.891Z,100943.53
2022-10-14T12:37:35.179Z,100940.97
2022-10-14T12:40:02.736Z,100927.81
2022-10-14T12:42:39.079Z,100933.06
2022-10-14T12:45:22.888Z,100926.06
2022-10-14T12:48:27.468Z,100939.53
2022-10-14T12:51:13.175Z,100922.56
2022-10-14T12:53:51.682Z,100930.22
2022-10-14T12:56:54.997Z,100913.75
2022-10-14T12:59:36.424Z,100916.56
2022-10-14T13:02:28.274Z,100909.00
2022-10-14T13:04:55.827Z,100913.53
2022-10-14T13:07:39.701Z,100903.69
2022-10-14T13:10:27.368Z,100900.09
2022-10-14T13:12:54.314Z,100901.19
2022-10-14T13:15:51.742Z,100896.09
2022-10-14T13:18:31.027Z,100889.59
2022-10-14T13:20:58.246Z,100898.34
2022-10-14T13:23:50.446Z,100898.28
2022-10-14T13:26:43.681Z,100894.69
2022-10-14T13:29:17.679Z,100887.53
2022-10-14T13:32:21.321Z,100882.69
2022-10-14T13:35:26.623Z,100871.41
2022-10-14T13:38:00.340Z,100875.44
2022-10-14T13:40:35.222Z,100875.72
2022-10-14T13:43:12.719Z,100871.28
2022-10-14T13:45:45.352Z,100882.50
2022-10-14T13:48:22.552Z,100874.94
2022-10-14T13:50:54.162Z,100868.38
2022-10-14T13:53:25.703Z,100871.72
2022-10-14T13:55:54.730Z,100863.03
2022-10-14T13:58:24.154Z,100862.63
2022-10-14T14:01:00.270Z,100880.66
2022-10-14T14:03:53.541Z,100864.72
2022-10-14T14:06:23.172Z,100860.56
2022-10-14T14:09:03.373Z,100874.50
2022-10-14T14:11:34.696Z,100868.88
2022-10-14T14:14:42.525Z,100869.19
2022-10-14T14:17:31.066Z,100864.25
2022-10-14T14:19:58.473Z,100873.22
2022-10-14T14:22:30.775Z,100875.34
2022-10-14T14:25:34.841Z,100872.00
2022-10-14T14:28:15.290Z,100869.88
2022-10-14T14:30:54.883Z,100873.59
2022-10-14T14:33:48.792Z,100867.59
2022-10-14T14:36:27.912Z,100865.13
2022-10-14T14:39:06.276Z,100876.91
2022-10-14T14:41:33.483Z,100864.78
2022-10-14T14:46:59.154Z,100859.91
2022-10-14T14:49:35.075Z,100856.47
2022-10-14T14:52:04.131Z,100857.44
2022-10-14T14:54:31.559Z,100850.44
2022-10-14T14:57:07.447Z,100846.19
2022-10-14T14:59:39.031Z,100842.44
2022-10-14T15:02:16.088Z,100838.13
2022-10-14T15:04:48.016Z,100834.81
2022-10-14T15:07:21.501Z,100832.81
2022-10-14T15:09:58.731Z,100837.81
2022-10-14T15:12:39.257Z,100838.03
2022-10-14T15:15:22.077Z,100835.03
2022-10-14T15:18:24.292Z,100828.78
2022-10-14T15:20:52.215Z,100822.41
2022-10-14T15:23:50.199Z,100831.94
2022-10-14T15:26:35.303Z,100828.56
2022-10-14T15:29:08.054Z,100823.81
2022-10-14T15:31:37.024Z,100816.91
2022-10-14T15:34:05.608Z,100810.78
2022-10-14T15:36:34.410Z,100814.19
2022-10-14T15:39:02.397Z,100817.03
2022-10-14T15:41:30.071Z,100820.41
2022-10-14T15:43:57.123Z,100818.63
2022-10-14T15:46:42.990Z,100816.53
2022-10-14T15:49:26.065Z,100811.03
2022-10-14T15:51:53.186Z,100809.00
2022-10-14T15:54:27.489Z,100809.09
2022-10-14T15:59:28.342Z,100811.41
2022-10-14T16:01:55.253Z,100813.44
2022-10-14T16:04:27.509Z,100806.22
2022-10-14T16:06:56.645Z,100812.00
2022-10-14T16:09:27.684Z,100809.09
2022-10-14T16:11:58.003Z,100797.03
2022-10-14T16:14:27.232Z,100806.59
2022-10-14T16:16:54.677Z,100807.19
2022-10-14T16:19:21.805Z,100810.00
2022-10-14T16:21:50.127Z,100816.03
2022-10-14T16:24:20.319Z,100815.28
2022-10-14T16:26:51.337Z,100811.28
2022-10-14T16:29:20.332Z,100810.28
2022-10-14T16:31:51.168Z,100800.59
2022-10-14T16:34:21.414Z,100817.44
2022-10-14T16:36:50.063Z,100826.13
2022-10-14T16:39:19.162Z,100821.56
2022-10-14T16:41:46.677Z,100817.25
2022-10-14T16:44:24.658Z,100816.50
2022-10-14T16:47:16.053Z,100823.56
2022-10-14T16:49:49.250Z,100819.00
2022-10-14T16:52:18.085Z,100824.69
2022-10-14T16:54:45.037Z,100824.97
2022-10-14T16:57:12.791Z,100814.44
2022-10-14T16:59:40.236Z,100809.59
2022-10-14T17:02:16.012Z,100813.94
2022-10-14T17:04:46.196Z,100806.38
2022-10-14T17:07:15.094Z,100798.81
2022-10-14T17:09:42.014Z,100801.00
2022-10-14T17:12:14.178Z,100795.84
2022-10-14T17:14:41.628Z,100800.16
2022-10-14T17:17:10.305Z,100805.56
2022-10-14T17:19:38.528Z,100798.56
2022-10-14T17:22:05.379Z,100806.13
2022-10-14T17:24:32.618Z,100808.00
2022-10-14T17:27:03.739Z,100800.72
2022-10-14T17:29:31.782Z,100803.44
2022-10-14T17:31:58.910Z,100802.63
2022-10-14T17:34:28.462Z,100802.63
2022-10-14T17:36:59.733Z,100798.56
2022-10-14T17:39:29.534Z,100809.38
2022-10-14T17:41:57.520Z,100794.78
2022-10-14T17:44:24.801Z,100803.97
2022-10-14T17:46:51.793Z,100795.34
2022-10-14T17:49:18.682Z,100796.44
2022-10-14T17:51:45.566Z,100798.84
2022-10-14T17:54:12.957Z,100799.94
2022-10-14T17:56:41.035Z,100793.19
2022-10-14T17:59:12.079Z,100802.09
2022-10-14T18:04:26.134Z,100799.91
2022-10-14T18:06:54.046Z,100794.50
2022-10-14T18:12:12.198Z,100791.25
2022-10-14T18:14:40.319Z,100790.19
2022-10-14T18:17:07.562Z,100791.81
2022-10-14T18:19:35.027Z,100791.25
2022-10-14T18:22:04.429Z,100785.81
2022-10-14T18:24:32.279Z,100778.28
2022-10-14T18:26:59.244Z,100772.34
2022-10-14T18:29:26.209Z,100767.75
2022-10-14T18:31:53.069Z,100761.00
2022-10-14T18:34:22.012Z,100757.75
2022-10-14T18:36:49.060Z,100775.00
2022-10-14T18:39:16.029Z,100765.00
2022-10-14T18:41:43.961Z,100770.13
2022-10-14T18:44:11.036Z,100770.66
2022-10-14T18:46:39.515Z,100762.03
2022-10-14T18:49:09.921Z,100757.97
2022-10-14T18:51:39.738Z,100758.22
2022-10-14T18:54:16.187Z,100757.66
2022-10-14T18:56:44.393Z,100756.03
2022-10-14T18:59:17.701Z,100757.06
2022-10-14T19:01:45.961Z,100750.84
2022-10-14T19:04:15.531Z,100747.34
2022-10-14T19:06:45.913Z,100745.97
2022-10-14T19:09:13.981Z,100736.22
2022-10-14T19:11:41.993Z,100745.66
2022-10-14T19:14:09.946Z,100748.88
2022-10-14T19:16:38.986Z,100741.84
2022-10-14T19:19:16.493Z,100742.09
2022-10-14T19:21:46.397Z,100740.47
2022-10-14T19:24:13.919Z,100744.47
2022-10-14T19:26:44.908Z,100747.19
2022-10-14T19:29:15.187Z,100740.66
2022-10-14T19:31:43.982Z,100743.91
2022-10-14T19:34:15.325Z,100739.59
2022-10-14T19:36:43.262Z,100734.47
2022-10-14T19:39:15.447Z,100725.84
2022-10-14T19:41:47.255Z,100716.13
2022-10-14T19:44:39.336Z,100726.34
2022-10-14T19:47:06.345Z,100720.41
2022-10-14T19:49:33.248Z,100713.13
2022-10-14T19:52:00.190Z,100719.56
2022-10-14T19:54:27.061Z,100702.88
2022-10-14T19:56:54.091Z,100700.16
2022-10-14T19:59:21.205Z,100701.00
2022-10-14T20:01:48.431Z,100699.63
2022-10-14T20:04:15.475Z,100692.13
2022-10-14T20:06:44.073Z,100696.94
2022-10-14T20:09:14.484Z,100696.41
2022-10-14T20:11:42.152Z,100691.81
2022-10-14T20:14:09.182Z,100692.09
2022-10-14T20:16:36.230Z,100686.69
2022-10-14T20:19:03.883Z,100688.59
2022-10-14T20:21:31.776Z,100689.97
2022-10-14T20:23:59.620Z,100690.78
2022-10-14T20:28:58.646Z,100684.34
2022-10-14T20:31:25.718Z,100678.44
2022-10-14T20:33:52.735Z,100681.41
2022-10-14T20:36:21.681Z,100682.50
2022-10-14T20:38:49.865Z,100672.53
2022-10-14T20:44:15.282Z,100667.44
2022-10-14T20:46:42.835Z,100675.28
2022-10-14T20:49:09.801Z,100664.25
2022-10-14T20:51:36.688Z,100664.25
2022-10-14T20:54:06.037Z,100673.69
2022-10-14T20:56:36.679Z,100672.91
2022-10-14T20:59:07.865Z,100668.84
2022-10-14T21:01:36.770Z,100672.09
2022-10-14T21:04:07.259Z,100667.00
2022-10-14T21:06:35.328Z,100657.34
2022-10-14T21:09:02.374Z,100650.88
2022-10-14T21:11:29.449Z,100635.25
2022-10-14T21:13:59.555Z,100636.34
2022-10-14T21:16:36.020Z,100645.78
2022-10-14T21:19:07.248Z,100628.78
2022-10-14T21:21:39.295Z,100624.75
2022-10-14T21:24:08.629Z,100618.28
2022-10-14T21:26:35.637Z,100615.31
2022-10-14T21:29:03.710Z,100621.28
2022-10-14T21:31:31.801Z,100608.88
2022-10-14T21:34:05.392Z,100614.28
2022-10-14T21:36:34.789Z,100603.50
2022-10-14T21:39:09.988Z,100607.81
2022-10-14T21:41:38.241Z,100605.13
2022-10-14T21:44:06.420Z,100604.31
2022-10-14T21:46:34.088Z,100595.69
2022-10-14T21:49:01.192Z,100592.19
2022-10-14T21:51:30.633Z,100602.97
2022-10-14T21:53:57.852Z,100599.19
2022-10-14T21:56:25.986Z,100598.13
2022-10-14T21:58:53.699Z,100593.28
2022-10-14T22:01:24.039Z,100591.13
2022-10-14T22:03:57.242Z,100589.75
2022-10-14T22:06:25.064Z,100583.56
2022-10-14T22:08:56.040Z,100584.91
2022-10-14T22:11:32.674Z,100572.78
2022-10-14T22:14:03.439Z,100571.97
2022-10-14T22:16:30.793Z,100562.28
2022-10-14T22:19:00.578Z,100564.16
2022-10-14T22:21:30.812Z,100554.19
2022-10-14T22:23:58.862Z,100552.84
2022-10-14T22:26:28.394Z,100544.22
2022-10-14T22:29:08.177Z,100536.38
2022-10-14T22:31:35.272Z,100531.81
2022-10-14T22:34:05.724Z,100532.88
2022-10-14T22:36:35.451Z,100523.19
2022-10-14T22:39:09.693Z,100525.34
2022-10-14T22:41:36.879Z,100538.28
2022-10-14T22:44:05.585Z,100526.16
2022-10-14T22:46:35.903Z,100523.19
2022-10-14T22:49:03.502Z,100519.16
2022-10-14T22:51:34.832Z,100518.59
2022-10-14T22:54:02.577Z,100511.31
2022-10-14T22:56:30.782Z,100505.13
2022-10-14T22:59:06.090Z,100505.66
2022-10-14T23:01:33.213Z,100508.38
2022-10-14T23:04:00.982Z,100506.19
2022-10-14T23:06:29.447Z,100508.63
2022-10-14T23:08:57.401Z,100518.59
2022-10-14T23:11:25.637Z,100505.41
2022-10-14T23:13:53.586Z,100508.63
2022-10-14T23:16:26.888Z,100505.13
2022-10-14T23:18:54.939Z,100507.00
2022-10-14T23:21:28.657Z,100507.28
2022-10-14T23:23:59.326Z,100497.31
2022-10-14T23:26:31.570Z,100482.50
2022-10-14T23:29:00.181Z,100503.78
2022-10-14T23:31:33.301Z,100505.41
2022-10-14T23:34:03.451Z,100508.63
2022-10-14T23:36:30.685Z,100512.41
2022-10-14T23:38:58.762Z,100511.31
2022-10-14T23:41:26.217Z,100503.78
2022-10-14T23:43:54.077Z,100491.38
2022-10-14T23:46:21.074Z,100495.41
2022-10-14T23:48:55.841Z,100486.53
2022-10-14T23:51:35.300Z,100499.72
2022-10-14T23:54:02.962Z,100494.06
2022-10-14T23:56:29.815Z,100494.06
2022-10-14T23:58:56.799Z,100489.47
